Forside
METAR-TAF:

METAR-TAF

Lufthavne :

Vinton Veterans Memorial Airpark

Vinton, Iowa, USA

Breddekreds: 42-13-07N, længdekreds: 092-01-33W, højde: 258 m

Aktuelle vejr

Denne rapport blev lavet for 23 minutter siden, kl. 08:35 UTC
Vind 3 kt fra nordnordvest
Temperatur -1°C
Fugtighed 69%
Tryk 1028 hPa
Sigt: 16.1 km
skyfri

METAR: KVTI 270835Z AUTO 33003KT 10SM CLR M01/M06 A3037 RMK AO2 T10071057

Tid: 03:58 (08:58 UTC)


TAF: fraværende

Vejrobservationer og prognoser fra mere end 4000 lufthavne (METAR og TAF).

De gule og røde prikker repræsenterer de meteorologiske stationer.

Flyt musen over at se navnet på stationen.

Så klik over at se vejr observationer og prognoser.

At skifte det kort: Klik på de grønne knapper med et sort kors for at zoome ind; på den grønne knap med en bindestreg for at zoome ud; eller på de grønne pile for tilstødende kort.


METAR-TAF: